sensor_id;sensor_type;location;lat;lon;timestamp;pressure;altitude;pressure_sealevel;temperature;humidity
59110;BME280;44895;47.438;18.978;2023-03-20T00:00:52;100086.63;;;9.88;81.11
59110;BME280;44895;47.438;18.978;2023-03-20T00:03:56;100090.03;;;9.75;81.91
59110;BME280;44895;47.438;18.978;2023-03-20T00:07:00;100088.75;;;9.67;83.15
59110;BME280;44895;47.438;18.978;2023-03-20T00:10:03;100084.59;;;9.75;78.70
59110;BME280;44895;47.438;18.978;2023-03-20T00:13:10;100081.41;;;9.68;80.21
59110;BME280;44895;47.438;18.978;2023-03-20T00:16:16;100090.66;;;9.67;81.29
59110;BME280;44895;47.438;18.978;2023-03-20T00:19:21;100092.09;;;9.59;83.11
59110;BME280;44895;47.438;18.978;2023-03-20T00:22:33;100094.28;;;9.57;82.26
59110;BME280;44895;47.438;18.978;2023-03-20T00:25:37;100086.50;;;9.74;75.83
59110;BME280;44895;47.438;18.978;2023-03-20T00:28:42;100090.56;;;9.77;75.49
59110;BME280;44895;47.438;18.978;2023-03-20T00:31:45;100092.44;;;9.76;77.87
59110;BME280;44895;47.438;18.978;2023-03-20T00:34:49;100090.84;;;9.75;77.31
59110;BME280;44895;47.438;18.978;2023-03-20T00:37:53;100081.66;;;9.71;78.69
59110;BME280;44895;47.438;18.978;2023-03-20T00:40:56;100086.03;;;9.67;78.58
59110;BME280;44895;47.438;18.978;2023-03-20T00:47:11;100085.97;;;9.48;82.01
59110;BME280;44895;47.438;18.978;2023-03-20T00:50:36;100090.34;;;9.44;86.06
59110;BME280;44895;47.438;18.978;2023-03-20T00:53:39;100087.19;;;9.32;88.16
59110;BME280;44895;47.438;18.978;2023-03-20T01:00:30;100084.13;;;9.09;95.18
59110;BME280;44895;47.438;18.978;2023-03-20T01:03:29;100079.84;;;9.03;94.64
59110;BME280;44895;47.438;18.978;2023-03-20T01:06:34;100083.94;;;9.00;96.58
59110;BME280;44895;47.438;18.978;2023-03-20T01:09:38;100085.06;;;8.94;99.49
59110;BME280;44895;47.438;18.978;2023-03-20T01:12:41;100084.47;;;9.02;95.96
59110;BME280;44895;47.438;18.978;2023-03-20T01:15:45;100076.88;;;8.99;95.18
59110;BME280;44895;47.438;18.978;2023-03-20T01:18:50;100081.88;;;8.81;98.72
59110;BME280;44895;47.438;18.978;2023-03-20T01:21:53;100073.00;;;8.76;100.00
59110;BME280;44895;47.438;18.978;2023-03-20T01:24:57;100074.34;;;8.78;99.75
59110;BME280;44895;47.438;18.978;2023-03-20T01:28:00;100066.72;;;8.86;99.58
59110;BME280;44895;47.438;18.978;2023-03-20T01:31:05;100081.09;;;8.81;96.43
59110;BME280;44895;47.438;18.978;2023-03-20T01:34:11;100064.56;;;8.82;98.55
59110;BME280;44895;47.438;18.978;2023-03-20T01:37:25;100059.13;;;8.82;95.86
59110;BME280;44895;47.438;18.978;2023-03-20T01:40:34;100067.22;;;8.88;92.21
59110;BME280;44895;47.438;18.978;2023-03-20T01:43:40;100056.84;;;9.00;92.81
59110;BME280;44895;47.438;18.978;2023-03-20T01:46:45;100050.28;;;9.06;92.37
59110;BME280;44895;47.438;18.978;2023-03-20T01:53:24;100062.47;;;9.09;91.65
59110;BME280;44895;47.438;18.978;2023-03-20T01:56:33;100060.59;;;9.04;96.01
59110;BME280;44895;47.438;18.978;2023-03-20T01:59:44;100063.53;;;9.08;96.42
59110;BME280;44895;47.438;18.978;2023-03-20T02:02:49;100061.66;;;9.08;93.78
59110;BME280;44895;47.438;18.978;2023-03-20T02:06:27;100056.19;;;9.13;95.87
59110;BME280;44895;47.438;18.978;2023-03-20T02:09:41;100050.25;;;9.11;93.68
59110;BME280;44895;47.438;18.978;2023-03-20T02:12:50;100043.16;;;9.16;95.85
59110;BME280;44895;47.438;18.978;2023-03-20T02:16:04;100052.25;;;9.30;90.57
59110;BME280;44895;47.438;18.978;2023-03-20T02:23:16;100052.72;;;9.37;89.42
59110;BME280;44895;47.438;18.978;2023-03-20T02:36:01;100033.28;;;9.30;89.77
59110;BME280;44895;47.438;18.978;2023-03-20T02:39:30;100043.03;;;9.31;90.39
59110;BME280;44895;47.438;18.978;2023-03-20T02:42:39;100022.75;;;9.28;94.77
59110;BME280;44895;47.438;18.978;2023-03-20T02:49:00;100023.59;;;8.94;98.82
59110;BME280;44895;47.438;18.978;2023-03-20T02:55:16;100025.03;;;8.81;100.00
59110;BME280;44895;47.438;18.978;2023-03-20T02:58:26;100024.63;;;8.64;98.56
59110;BME280;44895;47.438;18.978;2023-03-20T03:01:38;100028.72;;;8.61;99.01
59110;BME280;44895;47.438;18.978;2023-03-20T03:04:47;100019.66;;;8.76;92.04
59110;BME280;44895;47.438;18.978;2023-03-20T03:07:52;100030.56;;;8.66;92.08
59110;BME280;44895;47.438;18.978;2023-03-20T03:11:03;100036.72;;;8.77;89.99
59110;BME280;44895;47.438;18.978;2023-03-20T03:14:12;100033.16;;;8.81;84.11
59110;BME280;44895;47.438;18.978;2023-03-20T03:17:18;100033.75;;;8.73;86.78
59110;BME280;44895;47.438;18.978;2023-03-20T03:20:30;100048.38;;;8.72;86.10
59110;BME280;44895;47.438;18.978;2023-03-20T03:23:42;100047.06;;;8.70;84.86
59110;BME280;44895;47.438;18.978;2023-03-20T03:26:47;100050.75;;;8.79;83.58
59110;BME280;44895;47.438;18.978;2023-03-20T03:29:52;100045.44;;;8.69;84.69
59110;BME280;44895;47.438;18.978;2023-03-20T03:39:37;100047.97;;;8.55;93.59
59110;BME280;44895;47.438;18.978;2023-03-20T03:42:48;100049.16;;;8.33;95.99
59110;BME280;44895;47.438;18.978;2023-03-20T03:45:57;100059.13;;;7.77;100.00
59110;BME280;44895;47.438;18.978;2023-03-20T03:49:02;100060.28;;;7.50;100.00
59110;BME280;44895;47.438;18.978;2023-03-20T03:52:09;100064.84;;;7.65;100.00
59110;BME280;44895;47.438;18.978;2023-03-20T03:55:15;100068.91;;;7.58;100.00
59110;BME280;44895;47.438;18.978;2023-03-20T03:58:37;100078.41;;;7.24;100.00
59110;BME280;44895;47.438;18.978;2023-03-20T04:01:42;100082.75;;;7.05;100.00
59110;BME280;44895;47.438;18.978;2023-03-20T04:04:50;100077.63;;;7.18;100.00
59110;BME280;44895;47.438;18.978;2023-03-20T04:07:55;100071.38;;;7.08;100.00
59110;BME280;44895;47.438;18.978;2023-03-20T04:11:00;100076.00;;;6.87;100.00
59110;BME280;44895;47.438;18.978;2023-03-20T04:14:06;100082.13;;;6.56;100.00
59110;BME280;44895;47.438;18.978;2023-03-20T04:17:10;100088.34;;;6.57;100.00
59110;BME280;44895;47.438;18.978;2023-03-20T04:20:14;100084.03;;;6.66;100.00
59110;BME280;44895;47.438;18.978;2023-03-20T04:23:18;100094.53;;;6.42;100.00
59110;BME280;44895;47.438;18.978;2023-03-20T04:26:22;100083.47;;;6.48;100.00
59110;BME280;44895;47.438;18.978;2023-03-20T04:29:26;100086.16;;;6.48;100.00
59110;BME280;44895;47.438;18.978;2023-03-20T04:32:37;100091.84;;;6.52;100.00
59110;BME280;44895;47.438;18.978;2023-03-20T04:35:55;100100.47;;;6.49;100.00
59110;BME280;44895;47.438;18.978;2023-03-20T04:38:59;100098.78;;;6.22;100.00
59110;BME280;44895;47.438;18.978;2023-03-20T04:42:03;100089.91;;;6.37;100.00
59110;BME280;44895;47.438;18.978;2023-03-20T04:45:08;100093.66;;;6.26;100.00
59110;BME280;44895;47.438;18.978;2023-03-20T04:48:14;100083.38;;;6.12;100.00
59110;BME280;44895;47.438;18.978;2023-03-20T04:51:17;100080.44;;;6.24;100.00
59110;BME280;44895;47.438;18.978;2023-03-20T04:54:25;100082.94;;;6.41;100.00
59110;BME280;44895;47.438;18.978;2023-03-20T04:57:29;100084.97;;;6.08;100.00
59110;BME280;44895;47.438;18.978;2023-03-20T05:00:34;100090.69;;;6.17;100.00
59110;BME280;44895;47.438;18.978;2023-03-20T05:03:38;100099.44;;;5.97;100.00
59110;BME280;44895;47.438;18.978;2023-03-20T05:06:41;100097.25;;;5.94;100.00
59110;BME280;44895;47.438;18.978;2023-03-20T05:09:46;100094.00;;;5.86;100.00
59110;BME280;44895;47.438;18.978;2023-03-20T05:12:50;100098.84;;;5.84;100.00
59110;BME280;44895;47.438;18.978;2023-03-20T05:16:26;100101.63;;;6.00;100.00
59110;BME280;44895;47.438;18.978;2023-03-20T05:19:52;100117.06;;;6.10;100.00
59110;BME280;44895;47.438;18.978;2023-03-20T05:23:14;100112.78;;;6.19;100.00
59110;BME280;44895;47.438;18.978;2023-03-20T05:26:44;100120.16;;;6.44;100.00
59110;BME280;44895;47.438;18.978;2023-03-20T05:30:11;100117.16;;;6.41;100.00
59110;BME280;44895;47.438;18.978;2023-03-20T05:33:42;100114.97;;;6.22;100.00
59110;BME280;44895;47.438;18.978;2023-03-20T05:36:53;100124.41;;;6.25;100.00
59110;BME280;44895;47.438;18.978;2023-03-20T05:40:28;100127.78;;;6.73;100.00
59110;BME280;44895;47.438;18.978;2023-03-20T05:43:53;100124.00;;;6.64;100.00
59110;BME280;44895;47.438;18.978;2023-03-20T05:47:35;100123.19;;;6.68;100.00
59110;BME280;44895;47.438;18.978;2023-03-20T05:50:50;100120.53;;;6.89;100.00
59110;BME280;44895;47.438;18.978;2023-03-20T05:54:14;100129.19;;;7.07;100.00
59110;BME280;44895;47.438;18.978;2023-03-20T05:57:17;100129.22;;;7.32;100.00
59110;BME280;44895;47.438;18.978;2023-03-20T06:00:42;100127.31;;;7.33;100.00
59110;BME280;44895;47.438;18.978;2023-03-20T06:04:05;100129.97;;;7.74;100.00
59110;BME280;44895;47.438;18.978;2023-03-20T06:07:28;100139.41;;;7.82;100.00
59110;BME280;44895;47.438;18.978;2023-03-20T06:10:38;100145.91;;;7.76;100.00
59110;BME280;44895;47.438;18.978;2023-03-20T06:13:42;100151.59;;;7.79;100.00
59110;BME280;44895;47.438;18.978;2023-03-20T06:16:47;100149.31;;;8.23;100.00
59110;BME280;44895;47.438;18.978;2023-03-20T06:19:52;100144.69;;;8.33;100.00
59110;BME280;44895;47.438;18.978;2023-03-20T06:22:55;100138.69;;;8.42;100.00
59110;BME280;44895;47.438;18.978;2023-03-20T06:25:59;100140.78;;;8.65;100.00
59110;BME280;44895;47.438;18.978;2023-03-20T06:29:04;100139.44;;;9.03;100.00
59110;BME280;44895;47.438;18.978;2023-03-20T06:32:09;100136.28;;;9.30;100.00
59110;BME280;44895;47.438;18.978;2023-03-20T06:35:14;100143.13;;;9.52;100.00
59110;BME280;44895;47.438;18.978;2023-03-20T06:38:22;100139.19;;;11.03;96.06
59110;BME280;44895;47.438;18.978;2023-03-20T06:41:26;100137.00;;;12.55;77.03
59110;BME280;44895;47.438;18.978;2023-03-20T06:44:30;100137.03;;;12.78;74.12
59110;BME280;44895;47.438;18.978;2023-03-20T06:47:43;100140.31;;;13.02;69.08
59110;BME280;44895;47.438;18.978;2023-03-20T06:50:51;100136.06;;;13.56;68.90
59110;BME280;44895;47.438;18.978;2023-03-20T06:53:58;100125.56;;;15.87;60.79
59110;BME280;44895;47.438;18.978;2023-03-20T06:57:03;100124.50;;;16.60;54.79
59110;BME280;44895;47.438;18.978;2023-03-20T07:00:07;100138.19;;;16.09;52.56
59110;BME280;44895;47.438;18.978;2023-03-20T07:03:12;100128.25;;;16.77;50.74
59110;BME280;44895;47.438;18.978;2023-03-20T07:06:16;100133.47;;;17.12;49.48
59110;BME280;44895;47.438;18.978;2023-03-20T07:09:21;100125.72;;;17.48;48.97
59110;BME280;44895;47.438;18.978;2023-03-20T07:12:25;100130.50;;;17.38;47.47
59110;BME280;44895;47.438;18.978;2023-03-20T07:15:33;100128.88;;;18.45;45.75
59110;BME280;44895;47.438;18.978;2023-03-20T07:18:37;100132.13;;;18.35;42.73
59110;BME280;44895;47.438;18.978;2023-03-20T07:21:41;100134.50;;;18.24;43.59
59110;BME280;44895;47.438;18.978;2023-03-20T07:24:44;100130.34;;;18.67;44.28
59110;BME280;44895;47.438;18.978;2023-03-20T07:27:48;100127.03;;;18.62;43.55
59110;BME280;44895;47.438;18.978;2023-03-20T07:30:56;100132.22;;;18.51;43.15
59110;BME280;44895;47.438;18.978;2023-03-20T07:34:01;100128.72;;;18.79;42.43
59110;BME280;44895;47.438;18.978;2023-03-20T07:37:05;100118.00;;;18.89;40.47
59110;BME280;44895;47.438;18.978;2023-03-20T07:40:10;100132.09;;;18.10;41.43
59110;BME280;44895;47.438;18.978;2023-03-20T07:43:24;100132.56;;;18.00;41.62
59110;BME280;44895;47.438;18.978;2023-03-20T07:46:33;100129.56;;;17.80;41.75
59110;BME280;44895;47.438;18.978;2023-03-20T07:49:38;100139.75;;;16.70;42.92
59110;BME280;44895;47.438;18.978;2023-03-20T07:52:47;100136.16;;;17.00;42.94
59110;BME280;44895;47.438;18.978;2023-03-20T07:55:51;100137.34;;;17.32;42.70
59110;BME280;44895;47.438;18.978;2023-03-20T07:58:55;100136.03;;;18.09;41.16
59110;BME280;44895;47.438;18.978;2023-03-20T08:01:58;100142.69;;;17.28;41.52
59110;BME280;44895;47.438;18.978;2023-03-20T08:05:02;100141.06;;;18.19;41.68
59110;BME280;44895;47.438;18.978;2023-03-20T08:08:05;100145.19;;;18.25;40.05
59110;BME280;44895;47.438;18.978;2023-03-20T08:11:10;100144.38;;;18.25;38.56
59110;BME280;44895;47.438;18.978;2023-03-20T08:14:13;100138.16;;;19.06;39.73
59110;BME280;44895;47.438;18.978;2023-03-20T08:17:17;100138.22;;;19.66;39.04
59110;BME280;44895;47.438;18.978;2023-03-20T08:20:20;100140.69;;;19.55;39.37
59110;BME280;44895;47.438;18.978;2023-03-20T08:23:24;100142.22;;;19.25;40.19
59110;BME280;44895;47.438;18.978;2023-03-20T08:26:28;100149.78;;;18.99;39.72
59110;BME280;44895;47.438;18.978;2023-03-20T08:29:32;100148.31;;;18.77;40.01
59110;BME280;44895;47.438;18.978;2023-03-20T08:32:35;100147.63;;;18.93;40.31
59110;BME280;44895;47.438;18.978;2023-03-20T08:35:39;100141.25;;;18.51;39.26
59110;BME280;44895;47.438;18.978;2023-03-20T08:38:43;100142.84;;;18.65;39.92
59110;BME280;44895;47.438;18.978;2023-03-20T08:41:46;100145.66;;;18.81;40.22
59110;BME280;44895;47.438;18.978;2023-03-20T08:44:50;100143.63;;;17.91;38.17
59110;BME280;44895;47.438;18.978;2023-03-20T08:47:54;100151.56;;;18.05;40.34
59110;BME280;44895;47.438;18.978;2023-03-20T08:50:57;100143.56;;;18.12;39.56
59110;BME280;44895;47.438;18.978;2023-03-20T08:54:01;100150.81;;;18.29;39.45
59110;BME280;44895;47.438;18.978;2023-03-20T08:57:04;100154.22;;;18.26;40.89
59110;BME280;44895;47.438;18.978;2023-03-20T09:00:09;100150.63;;;18.63;40.35
59110;BME280;44895;47.438;18.978;2023-03-20T09:03:16;100150.63;;;18.75;39.52
59110;BME280;44895;47.438;18.978;2023-03-20T09:06:19;100158.34;;;18.57;39.68
59110;BME280;44895;47.438;18.978;2023-03-20T09:09:23;100156.63;;;18.52;39.53
59110;BME280;44895;47.438;18.978;2023-03-20T09:12:31;100157.97;;;18.71;40.14
59110;BME280;44895;47.438;18.978;2023-03-20T09:15:35;100161.44;;;19.09;39.82
59110;BME280;44895;47.438;18.978;2023-03-20T09:18:38;100158.78;;;18.59;39.54
59110;BME280;44895;47.438;18.978;2023-03-20T09:21:42;100158.38;;;18.98;40.51
59110;BME280;44895;47.438;18.978;2023-03-20T09:24:46;100165.16;;;18.75;39.51
59110;BME280;44895;47.438;18.978;2023-03-20T09:27:52;100161.63;;;18.75;38.15
59110;BME280;44895;47.438;18.978;2023-03-20T09:30:59;100157.91;;;18.96;40.09
59110;BME280;44895;47.438;18.978;2023-03-20T09:34:03;100156.38;;;18.33;38.11
59110;BME280;44895;47.438;18.978;2023-03-20T09:37:07;100154.44;;;18.21;39.50
59110;BME280;44895;47.438;18.978;2023-03-20T09:40:46;100153.03;;;17.90;41.40
59110;BME280;44895;47.438;18.978;2023-03-20T09:46:55;100153.03;;;18.52;42.81
59110;BME280;44895;47.438;18.978;2023-03-20T09:56:20;100157.97;;;18.71;41.83
59110;BME280;44895;47.438;18.978;2023-03-20T09:59:25;100150.47;;;18.84;41.94
59110;BME280;44895;47.438;18.978;2023-03-20T10:05:48;100156.25;;;18.54;41.89
59110;BME280;44895;47.438;18.978;2023-03-20T10:08:52;100155.47;;;18.53;42.80
59110;BME280;44895;47.438;18.978;2023-03-20T10:12:21;100156.72;;;18.56;42.45
59110;BME280;44895;47.438;18.978;2023-03-20T10:18:45;100155.72;;;18.23;42.18
59110;BME280;44895;47.438;18.978;2023-03-20T10:21:55;100152.84;;;18.20;43.10
59110;BME280;44895;47.438;18.978;2023-03-20T10:25:21;100155.34;;;18.50;42.94
59110;BME280;44895;47.438;18.978;2023-03-20T10:28:37;100147.53;;;18.52;42.01
59110;BME280;44895;47.438;18.978;2023-03-20T10:32:20;100147.09;;;18.50;41.96
59110;BME280;44895;47.438;18.978;2023-03-20T10:38:34;100141.88;;;18.85;42.69
59110;BME280;44895;47.438;18.978;2023-03-20T10:41:40;100138.47;;;19.17;42.71
59110;BME280;44895;47.438;18.978;2023-03-20T10:44:47;100139.31;;;19.05;41.96
59110;BME280;44895;47.438;18.978;2023-03-20T10:47:52;100142.63;;;18.70;42.29
59110;BME280;44895;47.438;18.978;2023-03-20T10:50:59;100135.75;;;18.64;41.43
59110;BME280;44895;47.438;18.978;2023-03-20T10:54:04;100137.13;;;18.57;40.85
59110;BME280;44895;47.438;18.978;2023-03-20T10:57:28;100131.41;;;18.38;40.52
59110;BME280;44895;47.438;18.978;2023-03-20T11:00:34;100128.22;;;18.48;41.43
59110;BME280;44895;47.438;18.978;2023-03-20T11:03:37;100113.22;;;18.33;41.09
59110;BME280;44895;47.438;18.978;2023-03-20T11:06:45;100118.38;;;18.35;41.51
59110;BME280;44895;47.438;18.978;2023-03-20T11:10:05;100114.66;;;18.55;41.57
59110;BME280;44895;47.438;18.978;2023-03-20T11:16:20;100101.66;;;18.81;41.75
59110;BME280;44895;47.438;18.978;2023-03-20T11:19:24;100096.13;;;18.93;41.46
59110;BME280;44895;47.438;18.978;2023-03-20T11:22:28;100094.13;;;19.06;42.31
59110;BME280;44895;47.438;18.978;2023-03-20T11:25:38;100091.09;;;18.83;40.51
59110;BME280;44895;47.438;18.978;2023-03-20T11:28:52;100093.38;;;18.93;40.55
59110;BME280;44895;47.438;18.978;2023-03-20T11:32:06;100082.66;;;18.63;41.38
59110;BME280;44895;47.438;18.978;2023-03-20T11:38:15;100084.09;;;18.57;42.08
59110;BME280;44895;47.438;18.978;2023-03-20T11:41:22;100080.72;;;18.76;43.22
59110;BME280;44895;47.438;18.978;2023-03-20T11:44:33;100074.00;;;18.61;42.88
59110;BME280;44895;47.438;18.978;2023-03-20T11:47:37;100083.53;;;18.39;42.65
59110;BME280;44895;47.438;18.978;2023-03-20T11:50:43;100083.53;;;18.39;42.43
59110;BME280;44895;47.438;18.978;2023-03-20T11:56:56;100077.84;;;18.32;42.41
59110;BME280;44895;47.438;18.978;2023-03-20T12:00:02;100081.84;;;18.09;43.00
59110;BME280;44895;47.438;18.978;2023-03-20T12:03:52;100083.22;;;18.16;42.74
59110;BME280;44895;47.438;18.978;2023-03-20T12:06:45;100078.25;;;18.46;43.36
59110;BME280;44895;47.438;18.978;2023-03-20T12:09:53;100082.09;;;18.17;42.91
59110;BME280;44895;47.438;18.978;2023-03-20T12:13:04;100071.66;;;18.22;42.64
59110;BME280;44895;47.438;18.978;2023-03-20T12:16:12;100064.88;;;18.32;43.03
59110;BME280;44895;47.438;18.978;2023-03-20T12:19:17;100066.75;;;18.16;43.66
59110;BME280;44895;47.438;18.978;2023-03-20T12:22:24;100075.34;;;18.14;43.63
59110;BME280;44895;47.438;18.978;2023-03-20T12:25:35;100065.13;;;18.02;43.84
59110;BME280;44895;47.438;18.978;2023-03-20T12:28:46;100059.31;;;18.04;44.15
59110;BME280;44895;47.438;18.978;2023-03-20T12:35:02;100067.09;;;18.02;44.58
59110;BME280;44895;47.438;18.978;2023-03-20T12:38:13;100064.47;;;18.05;44.47
59110;BME280;44895;47.438;18.978;2023-03-20T12:41:25;100062.72;;;18.25;44.76
59110;BME280;44895;47.438;18.978;2023-03-20T12:44:38;100062.06;;;18.04;45.23
59110;BME280;44895;47.438;18.978;2023-03-20T12:51:19;100063.28;;;17.69;44.40
59110;BME280;44895;47.438;18.978;2023-03-20T13:00:52;100049.91;;;18.05;45.02
59110;BME280;44895;47.438;18.978;2023-03-20T13:04:04;100050.16;;;18.00;44.47
59110;BME280;44895;47.438;18.978;2023-03-20T13:11:02;100040.97;;;17.83;44.80
59110;BME280;44895;47.438;18.978;2023-03-20T13:14:19;100042.81;;;17.91;44.77
59110;BME280;44895;47.438;18.978;2023-03-20T13:20:55;100026.09;;;17.84;45.58
59110;BME280;44895;47.438;18.978;2023-03-20T13:40:04;100021.53;;;17.76;46.05
59110;BME280;44895;47.438;18.978;2023-03-20T13:46:15;100010.53;;;17.64;45.79
59110;BME280;44895;47.438;18.978;2023-03-20T13:49:36;100017.63;;;17.77;46.70
59110;BME280;44895;47.438;18.978;2023-03-20T13:52:41;100021.75;;;17.58;46.48
59110;BME280;44895;47.438;18.978;2023-03-20T14:05:13;100012.81;;;17.74;47.32
59110;BME280;44895;47.438;18.978;2023-03-20T14:14:38;100007.91;;;17.55;47.67
59110;BME280;44895;47.438;18.978;2023-03-20T14:17:43;100014.31;;;17.34;48.67
59110;BME280;44895;47.438;18.978;2023-03-20T14:20:54;100008.81;;;17.47;48.13
59110;BME280;44895;47.438;18.978;2023-03-20T14:24:05;100010.06;;;17.49;48.97
59110;BME280;44895;47.438;18.978;2023-03-20T14:27:14;100009.91;;;17.21;49.04
59110;BME280;44895;47.438;18.978;2023-03-20T14:33:31;100003.19;;;17.31;48.86
59110;BME280;44895;47.438;18.978;2023-03-20T14:39:49;100010.94;;;17.16;49.82
59110;BME280;44895;47.438;18.978;2023-03-20T14:46:23;100008.63;;;17.06;50.59
59110;BME280;44895;47.438;18.978;2023-03-20T14:49:49;100012.31;;;17.22;50.06
59110;BME280;44895;47.438;18.978;2023-03-20T14:52:58;100003.06;;;17.27;50.32
59110;BME280;44895;47.438;18.978;2023-03-20T14:56:10;100002.38;;;17.30;50.29
59110;BME280;44895;47.438;18.978;2023-03-20T14:59:14;100001.72;;;17.33;50.23
59110;BME280;44895;47.438;18.978;2023-03-20T15:02:33;99995.53;;;17.36;50.50
59110;BME280;44895;47.438;18.978;2023-03-20T15:05:38;99998.38;;;17.27;50.26
59110;BME280;44895;47.438;18.978;2023-03-20T15:08:46;99996.31;;;17.24;50.92
59110;BME280;44895;47.438;18.978;2023-03-20T15:11:52;99995.00;;;16.97;51.21
59110;BME280;44895;47.438;18.978;2023-03-20T15:18:03;100004.91;;;16.89;51.73
59110;BME280;44895;47.438;18.978;2023-03-20T15:21:14;99996.16;;;16.75;52.20
59110;BME280;44895;47.438;18.978;2023-03-20T15:27:25;99990.22;;;16.73;52.52
59110;BME280;44895;47.438;18.978;2023-03-20T15:30:33;99987.69;;;16.68;53.08
59110;BME280;44895;47.438;18.978;2023-03-20T15:33:39;99986.75;;;16.63;53.20
59110;BME280;44895;47.438;18.978;2023-03-20T15:36:44;99986.06;;;16.67;53.36
59110;BME280;44895;47.438;18.978;2023-03-20T15:39:49;99983.59;;;16.74;53.46
59110;BME280;44895;47.438;18.978;2023-03-20T15:42:58;99981.28;;;16.63;53.95
59110;BME280;44895;47.438;18.978;2023-03-20T15:46:01;99974.41;;;16.57;54.31
59110;BME280;44895;47.438;18.978;2023-03-20T15:49:05;99981.50;;;16.58;54.39
59110;BME280;44895;47.438;18.978;2023-03-20T15:55:31;99980.25;;;16.68;54.11
59110;BME280;44895;47.438;18.978;2023-03-20T15:58:36;99983.34;;;16.67;54.41
59110;BME280;44895;47.438;18.978;2023-03-20T16:01:40;99980.09;;;16.52;55.59
59110;BME280;44895;47.438;18.978;2023-03-20T16:04:45;99983.16;;;16.51;55.77
59110;BME280;44895;47.438;18.978;2023-03-20T16:07:49;99988.19;;;16.49;56.24
59110;BME280;44895;47.438;18.978;2023-03-20T16:10:54;99987.59;;;16.43;56.54
59110;BME280;44895;47.438;18.978;2023-03-20T16:13:57;99997.47;;;16.35;57.25
59110;BME280;44895;47.438;18.978;2023-03-20T16:17:01;99993.34;;;16.29;57.87
59110;BME280;44895;47.438;18.978;2023-03-20T16:20:08;100001.09;;;16.27;57.92
59110;BME280;44895;47.438;18.978;2023-03-20T16:23:13;99999.47;;;16.05;59.89
59110;BME280;44895;47.438;18.978;2023-03-20T16:26:23;100000.13;;;16.02;60.03
59110;BME280;44895;47.438;18.978;2023-03-20T16:29:27;100000.66;;;15.95;60.76
59110;BME280;44895;47.438;18.978;2023-03-20T16:32:32;100012.00;;;15.85;61.36
59110;BME280;44895;47.438;18.978;2023-03-20T16:35:38;100008.81;;;15.74;61.22
59110;BME280;44895;47.438;18.978;2023-03-20T16:38:52;100004.97;;;15.66;61.37
59110;BME280;44895;47.438;18.978;2023-03-20T16:45:19;100018.78;;;15.40;63.56
59110;BME280;44895;47.438;18.978;2023-03-20T16:48:25;100025.22;;;15.35;63.46
59110;BME280;44895;47.438;18.978;2023-03-20T16:51:29;100023.63;;;15.34;62.96
59110;BME280;44895;47.438;18.978;2023-03-20T16:54:34;100022.22;;;15.19;64.44
59110;BME280;44895;47.438;18.978;2023-03-20T16:57:38;100031.56;;;15.09;65.68
59110;BME280;44895;47.438;18.978;2023-03-20T17:00:43;100032.88;;;15.03;65.95
59110;BME280;44895;47.438;18.978;2023-03-20T17:06:52;100027.44;;;14.86;67.89
59110;BME280;44895;47.438;18.978;2023-03-20T17:09:57;100037.06;;;14.83;67.57
59110;BME280;44895;47.438;18.978;2023-03-20T17:13:02;100034.06;;;14.67;68.58
59110;BME280;44895;47.438;18.978;2023-03-20T17:16:06;100032.75;;;14.56;69.67
59110;BME280;44895;47.438;18.978;2023-03-20T17:19:14;100040.75;;;14.43;70.19
59110;BME280;44895;47.438;18.978;2023-03-20T17:22:19;100039.97;;;14.43;70.20
59110;BME280;44895;47.438;18.978;2023-03-20T17:25:24;100043.50;;;14.43;70.96
59110;BME280;44895;47.438;18.978;2023-03-20T17:28:33;100043.47;;;14.26;71.40
59110;BME280;44895;47.438;18.978;2023-03-20T17:31:37;100039.59;;;14.18;74.61
59110;BME280;44895;47.438;18.978;2023-03-20T17:34:41;100032.69;;;14.12;74.88
59110;BME280;44895;47.438;18.978;2023-03-20T17:37:45;100038.63;;;14.05;74.01
59110;BME280;44895;47.438;18.978;2023-03-20T17:40:50;100043.41;;;13.99;75.50
59110;BME280;44895;47.438;18.978;2023-03-20T17:43:54;100039.19;;;13.84;75.54
59110;BME280;44895;47.438;18.978;2023-03-20T17:46:58;100050.75;;;13.81;76.03
59110;BME280;44895;47.438;18.978;2023-03-20T17:50:03;100054.09;;;13.69;77.09
59110;BME280;44895;47.438;18.978;2023-03-20T17:53:15;100053.13;;;13.74;76.28
59110;BME280;44895;47.438;18.978;2023-03-20T17:56:20;100050.63;;;13.95;74.41
59110;BME280;44895;47.438;18.978;2023-03-20T17:59:24;100060.41;;;13.88;74.07
59110;BME280;44895;47.438;18.978;2023-03-20T18:02:31;100064.72;;;13.80;74.17
59110;BME280;44895;47.438;18.978;2023-03-20T18:05:35;100065.22;;;13.42;77.89
59110;BME280;44895;47.438;18.978;2023-03-20T18:08:41;100058.44;;;13.16;82.63
59110;BME280;44895;47.438;18.978;2023-03-20T18:11:45;100069.91;;;13.04;84.41
59110;BME280;44895;47.438;18.978;2023-03-20T18:14:49;100062.97;;;12.98;84.50
59110;BME280;44895;47.438;18.978;2023-03-20T18:17:52;100067.88;;;12.87;86.41
59110;BME280;44895;47.438;18.978;2023-03-20T18:20:56;100060.00;;;12.63;88.50
59110;BME280;44895;47.438;18.978;2023-03-20T18:24:02;100067.28;;;12.54;90.86
59110;BME280;44895;47.438;18.978;2023-03-20T18:27:06;100068.53;;;12.48;91.37
59110;BME280;44895;47.438;18.978;2023-03-20T18:30:12;100070.22;;;12.44;90.20
59110;BME280;44895;47.438;18.978;2023-03-20T18:33:17;100067.97;;;12.23;93.52
59110;BME280;44895;47.438;18.978;2023-03-20T18:36:22;100069.88;;;12.22;95.24
59110;BME280;44895;47.438;18.978;2023-03-20T18:39:26;100067.56;;;12.02;97.42